This is the latest recevied weather packets stored in our database for station/object WD4DAN-13. If no packets are shown the sender has not sent any weather packets the latest 10 day(s).
| Time | Temp. | Humidity | Pressure | Rain* | Wind** | Luminosity | Snow |
|---|---|---|---|---|---|---|---|
| 1777997133 | 25° C | 65% | - | 0 mm | - | - | - |
| 1777996830 | 24.44° C | 67% | - | 0 mm | - | - | - |
| 1777996526 | 25.56° C | 65% | - | 0 mm | - | - | - |
| 1777996223 | 25° C | 67% | - | 0 mm | - | - | - |
| 1777995919 | 25° C | 68% | - | 0 mm | - | - | - |
| 1777995615 | 25° C | 68% | - | 0 mm | - | - | - |
| 1777995313 | 24.44° C | 71% | - | 0 mm | - | - | - |
| 1777995009 | 23.89° C | 71% | - | 0 mm | - | - | - |
| 1777994707 | 23.89° C | 70% | - | 0 mm | - | - | - |
| 1777994401 | 24.44° C | 70% | - | 0 mm | - | - | - |
| 1777994092 | 25° C | 69% | - | 0 mm | - | - | - |
| 1777993789 | 24.44° C | 73% | - | 0 mm | - | - | - |
| 1777993486 | 23.89° C | 72% | - | 0 mm | - | - | - |
| 1777993185 | 23.89° C | 73% | - | 0 mm | - | - | - |
| 1777992884 | 23.89° C | 73% | - | 0 mm | - | - | - |
| 1777992582 | 23.33° C | 73% | - | 0 mm | - | - | - |
| 1777992280 | 23.33° C | 74% | - | 0 mm | - | - | - |
| 1777991976 | 23.89° C | 74% | - | 0 mm | - | - | - |
| 1777991674 | 23.33° C | 75% | - | 0 mm | - | - | - |
| 1777991371 | 22.78° C | 75% | - | 0 mm | - | - | - |
| 1777991068 | 23.33° C | 73% | - | 0 mm | - | - | - |
| 1777990766 | 22.78° C | 75% | - | 0 mm | - | - | - |
| 1777990463 | 22.78° C | 75% | - | 0 mm | - | - | - |
| 1777989856 | 22.78° C | 76% | - | 0 mm | - | - | - |
| 1777989553 | 22.78° C | 76% | - | 0 mm | - | - | - |
* Rain latest hour (hover to see other rain measurements)
** Current wind speed in m/s (hover to see current wind gust speed)